createdAt,value
2022-12-19T00:01:05.251Z,18.05
2022-12-19T00:03:32.982Z,21.05
2022-12-19T00:06:02.606Z,18.67
2022-12-19T00:08:30.231Z,21.40
2022-12-19T00:10:58.660Z,20.73
2022-12-19T00:13:27.203Z,15.00
2022-12-19T00:16:01.167Z,18.27
2022-12-19T00:18:30.608Z,25.38
2022-12-19T00:20:59.338Z,27.95
2022-12-19T00:23:27.284Z,18.30
2022-12-19T00:25:55.094Z,21.75
2022-12-19T00:28:23.019Z,20.95
2022-12-19T00:30:50.696Z,14.77
2022-12-19T00:33:21.023Z,16.13
2022-12-19T00:35:50.220Z,19.88
2022-12-19T00:38:17.853Z,20.95
2022-12-19T00:40:45.501Z,17.13
2022-12-19T00:43:13.157Z,16.23
2022-12-19T00:45:40.947Z,10.73
2022-12-19T00:48:08.891Z,11.38
2022-12-19T00:50:38.088Z,18.48
2022-12-19T00:53:07.098Z,10.88
2022-12-19T00:55:34.785Z,13.65
2022-12-19T00:58:02.412Z,16.20
2022-12-19T01:00:30.058Z,15.50
2022-12-19T01:02:58.837Z,12.30
2022-12-19T01:05:26.551Z,10.40
2022-12-19T01:07:54.220Z,14.10
2022-12-19T01:10:26.195Z,14.55
2022-12-19T01:12:52.878Z,15.80
2022-12-19T01:15:21.815Z,15.68
2022-12-19T01:17:52.417Z,17.23
2022-12-19T01:20:29.183Z,16.10
2022-12-19T01:23:00.314Z,13.10
2022-12-19T01:25:29.576Z,15.88
2022-12-19T01:27:57.397Z,14.65
2022-12-19T01:30:25.171Z,20.17
2022-12-19T01:32:53.767Z,15.50
2022-12-19T01:35:22.322Z,15.90
2022-12-19T01:37:51.741Z,14.10
2022-12-19T01:40:19.737Z,18.30
2022-12-19T01:42:49.061Z,18.88
2022-12-19T01:45:33.979Z,15.55
2022-12-19T01:48:08.457Z,15.02
2022-12-19T01:50:40.380Z,18.67
2022-12-19T01:53:12.071Z,17.42
2022-12-19T01:55:43.877Z,15.60
2022-12-19T01:58:14.426Z,14.80
2022-12-19T02:00:43.272Z,16.65
2022-12-19T02:03:13.056Z,14.48
2022-12-19T02:05:41.205Z,14.65
2022-12-19T02:08:09.043Z,18.17
2022-12-19T02:10:36.666Z,17.35
2022-12-19T02:13:04.360Z,14.82
2022-12-19T02:15:35.489Z,24.90
2022-12-19T02:18:07.923Z,19.20
2022-12-19T02:20:46.294Z,19.90
2022-12-19T02:23:28.275Z,17.20
2022-12-19T02:26:02.719Z,13.48
2022-12-19T02:28:41.930Z,17.10
2022-12-19T02:31:17.863Z,15.57
2022-12-19T02:33:46.927Z,15.57
2022-12-19T02:36:18.272Z,17.45
2022-12-19T02:38:50.213Z,16.52
2022-12-19T02:41:21.825Z,17.05
2022-12-19T02:43:52.838Z,16.15
2022-12-19T02:46:28.151Z,14.15
2022-12-19T02:48:56.327Z,15.90
2022-12-19T02:51:23.940Z,16.27
2022-12-19T02:53:51.872Z,12.38
2022-12-19T02:56:23.799Z,19.90
2022-12-19T02:58:55.990Z,18.55
2022-12-19T03:01:31.000Z,20.08
2022-12-19T03:04:04.611Z,16.33
2022-12-19T03:06:35.791Z,12.52
2022-12-19T03:09:09.082Z,14.93
2022-12-19T03:11:38.528Z,17.63
2022-12-19T03:14:08.336Z,18.80
2022-12-19T03:16:36.830Z,15.13
2022-12-19T03:19:06.446Z,15.13
2022-12-19T03:21:36.192Z,18.50
2022-12-19T03:24:04.858Z,16.45
2022-12-19T03:26:36.590Z,18.48
2022-12-19T03:29:08.351Z,17.17
2022-12-19T03:31:37.040Z,18.27
2022-12-19T03:34:09.082Z,17.27
2022-12-19T03:36:38.499Z,17.88
2022-12-19T03:39:08.435Z,14.48
2022-12-19T03:41:54.550Z,15.15
2022-12-19T03:46:52.815Z,14.57
2022-12-19T03:49:21.879Z,11.57
2022-12-19T03:51:57.870Z,18.30
2022-12-19T03:54:28.679Z,16.70
2022-12-19T03:56:59.466Z,16.85
2022-12-19T03:59:30.331Z,13.98
2022-12-19T04:01:58.364Z,12.27
2022-12-19T04:04:29.113Z,17.90
2022-12-19T04:06:56.960Z,16.92
2022-12-19T04:09:25.119Z,13.32
2022-12-19T04:11:54.746Z,15.65
2022-12-19T04:14:26.393Z,12.15
2022-12-19T04:16:57.559Z,16.00
2022-12-19T04:19:29.163Z,13.43
2022-12-19T04:22:03.059Z,11.98
2022-12-19T04:24:34.624Z,14.60
2022-12-19T04:27:03.017Z,14.63
2022-12-19T04:29:32.486Z,14.55
2022-12-19T04:32:00.267Z,14.93
2022-12-19T04:34:27.928Z,10.75
2022-12-19T04:36:55.673Z,11.80
2022-12-19T04:39:24.717Z,13.57
2022-12-19T04:41:52.530Z,10.35
2022-12-19T04:44:20.415Z,18.83
2022-12-19T04:46:48.184Z,12.82
2022-12-19T04:49:15.938Z,8.80
2022-12-19T04:51:43.773Z,13.52
2022-12-19T04:54:11.402Z,11.95
2022-12-19T04:56:40.412Z,12.95
2022-12-19T04:59:08.129Z,17.48
2022-12-19T05:01:35.872Z,12.27
2022-12-19T05:04:04.838Z,12.38
2022-12-19T05:06:33.143Z,13.55
2022-12-19T05:09:00.820Z,13.52
2022-12-19T05:11:28.573Z,9.90
2022-12-19T05:13:59.180Z,13.52
2022-12-19T05:16:27.003Z,13.48
2022-12-19T05:18:54.812Z,17.73
2022-12-19T05:21:22.755Z,10.73
2022-12-19T05:23:51.294Z,11.70
2022-12-19T05:26:19.524Z,18.65
2022-12-19T05:28:47.930Z,14.15
2022-12-19T05:31:18.187Z,9.68
2022-12-19T05:33:45.930Z,11.40
2022-12-19T05:36:15.088Z,11.52
2022-12-19T05:38:42.873Z,11.88
2022-12-19T05:41:11.348Z,10.02
2022-12-19T05:43:38.977Z,15.00
2022-12-19T05:46:06.903Z,11.25
2022-12-19T05:48:36.228Z,7.63
2022-12-19T05:51:03.901Z,11.90
2022-12-19T05:53:31.573Z,14.45
2022-12-19T05:56:06.129Z,11.27
2022-12-19T05:58:36.574Z,13.23
2022-12-19T06:01:04.413Z,11.90
2022-12-19T06:03:32.245Z,10.70
2022-12-19T06:06:04.857Z,10.90
2022-12-19T06:08:32.608Z,10.85
2022-12-19T06:11:00.746Z,11.95
2022-12-19T06:13:28.544Z,8.70
2022-12-19T06:16:00.008Z,7.45
2022-12-19T06:18:28.412Z,9.48
2022-12-19T06:20:59.888Z,13.73
2022-12-19T06:23:29.024Z,9.23
2022-12-19T06:25:57.273Z,5.85
2022-12-19T06:28:24.875Z,9.02
2022-12-19T06:30:52.485Z,11.43
2022-12-19T06:33:20.574Z,11.40
2022-12-19T06:35:48.333Z,8.80
2022-12-19T06:38:16.042Z,9.82
2022-12-19T06:41:02.898Z,10.85
2022-12-19T06:43:30.689Z,9.38
2022-12-19T06:45:58.486Z,8.85
2022-12-19T06:48:27.854Z,8.35
2022-12-19T06:50:55.525Z,10.45
2022-12-19T06:53:23.213Z,10.40
2022-12-19T06:55:54.445Z,8.48
2022-12-19T06:58:24.389Z,8.30
2022-12-19T07:00:52.737Z,9.52
2022-12-19T07:03:21.967Z,12.27
2022-12-19T07:05:49.699Z,12.68
2022-12-19T07:08:17.419Z,7.65
2022-12-19T07:10:45.139Z,8.73
2022-12-19T07:13:14.272Z,8.93
2022-12-19T07:15:42.119Z,8.05
2022-12-19T07:18:10.556Z,9.18
2022-12-19T07:20:44.776Z,7.55
2022-12-19T07:23:14.631Z,10.73
2022-12-19T07:25:42.471Z,8.50
2022-12-19T07:28:10.590Z,8.90
2022-12-19T07:30:39.629Z,9.75
2022-12-19T07:33:10.819Z,8.57
2022-12-19T07:35:38.874Z,8.43
2022-12-19T07:38:07.512Z,8.43
2022-12-19T07:40:35.263Z,11.38
2022-12-19T07:43:03.258Z,8.60
2022-12-19T07:45:31.315Z,7.75
2022-12-19T07:48:02.651Z,7.28
2022-12-19T07:50:30.621Z,7.65
2022-12-19T07:52:58.847Z,10.85
2022-12-19T07:55:26.787Z,6.82
2022-12-19T07:57:55.529Z,8.57
2022-12-19T08:00:23.537Z,8.10
2022-12-19T08:02:51.798Z,8.95
2022-12-19T08:05:20.941Z,7.07
2022-12-19T08:07:49.546Z,7.93
2022-12-19T08:10:19.710Z,7.30
2022-12-19T08:12:47.942Z,12.73
2022-12-19T08:15:15.968Z,6.45
2022-12-19T08:17:43.734Z,8.63
2022-12-19T08:20:12.463Z,10.23
2022-12-19T08:22:41.507Z,6.18
2022-12-19T08:25:09.649Z,7.72
2022-12-19T08:27:38.702Z,7.07
2022-12-19T08:30:07.593Z,6.30
2022-12-19T08:32:36.642Z,7.45
2022-12-19T08:35:05.473Z,7.68
2022-12-19T08:37:35.912Z,6.43
2022-12-19T08:40:07.311Z,6.78
2022-12-19T08:42:34.952Z,7.70
2022-12-19T08:45:02.673Z,6.03
2022-12-19T08:47:30.414Z,8.25
2022-12-19T08:49:58.137Z,5.82
2022-12-19T08:52:25.862Z,5.68
2022-12-19T08:54:53.503Z,8.13
2022-12-19T08:57:22.837Z,5.45
2022-12-19T08:59:50.555Z,7.05
2022-12-19T09:02:20.226Z,6.75
2022-12-19T09:06:03.214Z,8.10
2022-12-19T09:07:38.815Z,8.02
2022-12-19T09:10:07.516Z,4.88
2022-12-19T09:12:36.499Z,9.27
2022-12-19T09:15:04.393Z,8.35
2022-12-19T09:17:32.163Z,8.25
2022-12-19T09:20:00.349Z,8.48
2022-12-19T09:22:29.608Z,28.67
2022-12-19T09:24:57.446Z,14.65
2022-12-19T09:27:25.182Z,9.15
2022-12-19T09:29:54.241Z,7.47
2022-12-19T09:32:21.905Z,9.20
2022-12-19T09:34:49.555Z,10.73
2022-12-19T09:37:17.825Z,6.45
2022-12-19T09:39:46.410Z,5.72
2022-12-19T09:42:31.978Z,9.18
2022-12-19T09:45:31.917Z,10.70
2022-12-19T09:48:01.131Z,14.25
2022-12-19T09:50:32.216Z,7.28
2022-12-19T09:53:01.616Z,7.50
2022-12-19T09:55:30.514Z,10.05
2022-12-19T09:58:00.379Z,7.35
2022-12-19T10:00:36.086Z,6.20
2022-12-19T10:03:06.854Z,6.63
2022-12-19T10:05:53.153Z,8.18
2022-12-19T10:08:31.897Z,10.38
2022-12-19T10:12:39.410Z,13.05
2022-12-19T10:14:00.257Z,7.65
2022-12-19T10:16:34.010Z,6.07
2022-12-19T10:19:02.717Z,5.32
2022-12-19T10:22:07.399Z,10.82
2022-12-19T10:24:31.712Z,7.35
2022-12-19T10:27:04.854Z,6.05
2022-12-19T10:29:43.366Z,8.70
2022-12-19T10:32:17.279Z,4.85
2022-12-19T10:34:45.966Z,6.57
2022-12-19T10:37:27.220Z,6.20
2022-12-19T10:40:04.465Z,7.30
2022-12-19T10:42:37.700Z,7.20
2022-12-19T10:45:07.550Z,5.68
2022-12-19T10:47:37.207Z,6.53
2022-12-19T10:50:09.521Z,4.97
2022-12-19T10:52:48.945Z,3.88
2022-12-19T10:55:31.561Z,3.92
2022-12-19T10:57:59.546Z,4.35
2022-12-19T11:00:27.765Z,4.07
2022-12-19T11:03:09.649Z,6.03
2022-12-19T11:05:42.536Z,4.30
2022-12-19T11:08:15.384Z,8.45
2022-12-19T11:13:24.753Z,7.05
2022-12-19T11:19:34.615Z,4.95
2022-12-19T11:24:39.475Z,4.60
2022-12-19T11:25:05.170Z,2.53
2022-12-19T11:29:16.200Z,4.45
2022-12-19T11:29:37.884Z,3.05
2022-12-19T11:30:35.209Z,5.47
2022-12-19T11:33:29.816Z,4.45
2022-12-19T11:35:59.828Z,5.40
2022-12-19T11:38:32.194Z,7.18
2022-12-19T11:41:02.665Z,7.10
2022-12-19T11:43:48.282Z,4.80
2022-12-19T11:46:22.412Z,4.72
2022-12-19T11:48:53.433Z,3.83
2022-12-19T11:51:26.396Z,5.00
2022-12-19T11:53:57.702Z,2.72
2022-12-19T11:56:28.007Z,3.28
2022-12-19T11:58:59.004Z,16.27
2022-12-19T12:01:40.797Z,7.65
2022-12-19T12:04:17.200Z,7.22
2022-12-19T12:06:48.889Z,5.47
2022-12-19T12:12:13.933Z,4.60
2022-12-19T12:19:29.642Z,4.85
2022-12-19T12:26:30.566Z,5.93
2022-12-19T12:28:08.805Z,5.10
2022-12-19T12:31:04.716Z,4.40
2022-12-19T12:31:38.742Z,6.55
2022-12-19T12:31:39.146Z,5.50
2022-12-19T12:31:48.508Z,5.05
2022-12-19T12:35:33.274Z,5.32
2022-12-19T12:37:52.490Z,3.70
2022-12-19T12:38:22.738Z,4.10
2022-12-19T12:40:59.396Z,5.93
2022-12-19T12:43:36.048Z,4.65
2022-12-19T12:46:04.617Z,5.57
2022-12-19T12:48:35.339Z,4.00
2022-12-19T12:51:03.272Z,2.65
2022-12-19T12:53:33.454Z,4.78
2022-12-19T12:56:04.461Z,6.28
2022-12-19T12:58:46.056Z,7.13
2022-12-19T13:01:17.501Z,4.53
2022-12-19T13:03:55.331Z,5.03
2022-12-19T13:06:26.749Z,4.18
2022-12-19T13:08:57.295Z,3.60
2022-12-19T13:11:55.171Z,3.53
2022-12-19T13:14:41.393Z,4.88
2022-12-19T13:17:09.674Z,3.88
2022-12-19T13:19:38.482Z,2.85
2022-12-19T13:22:19.676Z,5.03
2022-12-19T13:24:48.883Z,4.57
2022-12-19T13:27:38.543Z,6.35
2022-12-19T13:30:18.017Z,6.20
2022-12-19T13:33:04.539Z,4.95
2022-12-19T13:38:58.356Z,4.82
2022-12-19T13:39:54.908Z,3.22
2022-12-19T13:41:40.271Z,4.28
2022-12-19T13:44:10.282Z,4.95
2022-12-19T13:46:40.012Z,5.65
2022-12-19T13:49:09.433Z,4.88
2022-12-19T13:51:46.302Z,3.20
2022-12-19T13:54:21.198Z,3.53
2022-12-19T13:56:48.925Z,6.72
2022-12-19T13:59:18.073Z,2.50
2022-12-19T14:01:45.947Z,4.45
2022-12-19T14:04:15.666Z,4.45
2022-12-19T14:06:44.386Z,4.25
2022-12-19T14:11:25.440Z,4.65
2022-12-19T14:13:52.268Z,6.55
2022-12-19T14:15:29.171Z,3.85
2022-12-19T14:17:56.870Z,5.40
2022-12-19T14:22:02.784Z,4.30
2022-12-19T14:23:43.127Z,6.95
2022-12-19T14:28:21.384Z,4.60
2022-12-19T14:29:02.725Z,3.92
2022-12-19T14:31:33.143Z,5.93
2022-12-19T14:36:50.777Z,6.45
2022-12-19T14:39:22.602Z,4.40
2022-12-19T14:42:19.572Z,4.90
2022-12-19T14:52:51.668Z,4.93
2022-12-19T14:54:22.569Z,6.50
2022-12-19T14:54:31.031Z,4.95
2022-12-19T14:54:55.366Z,3.17
2022-12-19T14:59:02.293Z,5.07
2022-12-19T15:01:30.622Z,5.15
2022-12-19T15:04:51.192Z,5.07
2022-12-19T15:07:09.059Z,3.28
2022-12-19T15:11:08.136Z,6.38
2022-12-19T15:14:47.389Z,2.67
2022-12-19T15:15:52.790Z,5.07
2022-12-19T15:20:49.310Z,4.82
2022-12-19T15:23:25.842Z,4.50
2022-12-19T15:26:03.857Z,4.25
2022-12-19T15:28:37.327Z,7.57
2022-12-19T15:31:07.153Z,5.00
2022-12-19T15:33:34.825Z,3.60
2022-12-19T15:36:03.957Z,4.13
2022-12-19T15:38:31.595Z,3.58
2022-12-19T15:40:59.257Z,4.53
2022-12-19T15:44:01.709Z,3.80
2022-12-19T15:46:15.241Z,4.45
2022-12-19T15:48:45.546Z,7.40
2022-12-19T15:51:16.252Z,4.60
2022-12-19T15:53:44.016Z,3.95
2022-12-19T15:56:21.879Z,3.10
2022-12-19T15:58:49.637Z,6.45
2022-12-19T16:01:17.509Z,9.20
2022-12-19T16:03:45.458Z,3.33
2022-12-19T16:06:13.715Z,4.55
2022-12-19T16:08:42.844Z,6.15
2022-12-19T16:11:17.398Z,8.52
2022-12-19T16:13:45.828Z,4.27
2022-12-19T16:16:16.029Z,4.50
2022-12-19T16:18:44.581Z,5.60
2022-12-19T16:21:18.842Z,4.78
2022-12-19T16:23:47.908Z,4.93
2022-12-19T16:26:29.198Z,4.82
2022-12-19T16:28:56.898Z,4.47
2022-12-19T16:31:25.733Z,6.32
2022-12-19T16:33:53.475Z,4.30
2022-12-19T16:36:21.763Z,4.82
2022-12-19T16:38:50.971Z,4.90
2022-12-19T16:41:20.518Z,4.13
2022-12-19T16:43:48.162Z,3.38
2022-12-19T16:46:17.612Z,8.77
2022-12-19T16:48:45.508Z,8.63
2022-12-19T16:51:18.548Z,5.07
2022-12-19T16:53:46.370Z,4.45
2022-12-19T16:56:21.966Z,3.90
2022-12-19T16:58:50.027Z,3.53
2022-12-19T17:01:17.943Z,7.78
2022-12-19T17:03:46.029Z,4.07
2022-12-19T17:06:14.072Z,2.78
2022-12-19T17:08:41.812Z,5.10
2022-12-19T17:11:14.094Z,5.28
2022-12-19T17:13:43.558Z,6.50
2022-12-19T17:16:11.355Z,3.70
2022-12-19T17:18:40.243Z,3.05
2022-12-19T17:21:07.971Z,4.30
2022-12-19T17:23:35.706Z,5.43
2022-12-19T17:26:03.411Z,5.38
2022-12-19T17:28:31.152Z,5.63
2022-12-19T17:31:01.100Z,9.93
2022-12-19T17:33:33.207Z,6.72
2022-12-19T17:36:01.203Z,7.97
2022-12-19T17:38:28.877Z,5.68
2022-12-19T17:40:56.586Z,7.57
2022-12-19T17:43:24.535Z,4.25
2022-12-19T17:45:52.663Z,4.03
2022-12-19T17:48:26.964Z,5.25
2022-12-19T17:50:55.035Z,4.70
2022-12-19T17:53:22.964Z,6.80
2022-12-19T17:55:51.054Z,5.22
2022-12-19T17:58:18.916Z,4.78
2022-12-19T18:00:48.269Z,6.25
2022-12-19T18:03:21.379Z,7.85
2022-12-19T18:05:51.533Z,4.93
2022-12-19T18:08:27.157Z,6.38
2022-12-19T18:10:56.505Z,4.20
2022-12-19T18:13:24.639Z,6.35
2022-12-19T18:15:53.934Z,3.55
2022-12-19T18:18:23.950Z,3.47
2022-12-19T18:20:53.032Z,4.25
2022-12-19T18:23:22.419Z,4.38
2022-12-19T18:25:54.875Z,5.00
2022-12-19T18:28:25.519Z,7.32
2022-12-19T18:30:56.516Z,5.72
2022-12-19T18:33:24.730Z,4.43
2022-12-19T18:35:53.722Z,3.88
2022-12-19T18:38:22.506Z,5.35
2022-12-19T18:40:51.910Z,5.22
2022-12-19T18:43:20.027Z,7.57
2022-12-19T18:45:48.834Z,4.72
2022-12-19T18:48:20.603Z,7.47
2022-12-19T18:50:48.311Z,5.13
2022-12-19T18:53:19.659Z,6.85
2022-12-19T18:55:47.309Z,6.82
2022-12-19T18:58:15.399Z,5.78
2022-12-19T19:00:43.189Z,5.70
2022-12-19T19:03:14.641Z,7.13
2022-12-19T19:05:42.476Z,5.30
2022-12-19T19:08:15.466Z,5.70
2022-12-19T19:10:44.935Z,4.07
2022-12-19T19:13:12.664Z,4.53
2022-12-19T19:15:42.087Z,7.07
2022-12-19T19:18:09.972Z,5.03
2022-12-19T19:20:38.990Z,4.40
2022-12-19T19:23:08.500Z,7.28
2022-12-19T19:25:36.201Z,7.75
2022-12-19T19:28:05.900Z,5.45
2022-12-19T19:30:35.407Z,5.00
2022-12-19T19:33:07.410Z,3.75
2022-12-19T19:35:35.565Z,6.25
2022-12-19T19:38:06.746Z,9.65
2022-12-19T19:40:34.523Z,4.22
2022-12-19T19:43:02.218Z,5.68
2022-12-19T19:45:31.385Z,4.28
2022-12-19T19:48:03.201Z,6.18
2022-12-19T19:50:30.882Z,9.30
2022-12-19T19:52:58.721Z,3.65
2022-12-19T19:55:26.367Z,4.35
2022-12-19T19:57:54.233Z,6.13
2022-12-19T20:00:24.841Z,5.95
2022-12-19T20:02:54.033Z,5.72
2022-12-19T20:05:21.880Z,6.05
2022-12-19T20:07:49.564Z,7.25
2022-12-19T20:10:17.269Z,5.13
2022-12-19T20:12:44.939Z,4.70
2022-12-19T20:15:12.610Z,3.50
2022-12-19T20:17:40.850Z,3.80
2022-12-19T20:20:10.630Z,6.10
2022-12-19T20:22:38.278Z,4.95
2022-12-19T20:25:06.604Z,4.43
2022-12-19T20:27:34.312Z,4.13
2022-12-19T20:30:02.046Z,5.30
2022-12-19T20:32:30.456Z,4.40
2022-12-19T20:34:58.427Z,4.25
2022-12-19T20:37:27.576Z,4.15
2022-12-19T20:39:55.339Z,3.80
2022-12-19T20:42:23.122Z,4.82
2022-12-19T20:44:51.559Z,4.88
2022-12-19T20:47:19.252Z,2.88
2022-12-19T20:49:46.971Z,5.95
2022-12-19T20:52:14.758Z,4.72
2022-12-19T20:54:43.772Z,5.38
2022-12-19T20:57:11.455Z,3.75
2022-12-19T20:59:39.124Z,6.93
2022-12-19T21:02:08.905Z,5.43
2022-12-19T21:04:36.904Z,3.63
2022-12-19T21:07:04.702Z,2.72
2022-12-19T21:09:32.525Z,5.47
2022-12-19T21:12:01.585Z,4.55
2022-12-19T21:14:29.287Z,6.78
2022-12-19T21:16:57.050Z,4.82
2022-12-19T21:19:24.676Z,3.78
2022-12-19T21:21:52.358Z,3.58
2022-12-19T21:24:20.166Z,4.90
2022-12-19T21:26:56.142Z,2.35
2022-12-19T21:29:27.253Z,5.25
2022-12-19T21:31:55.021Z,3.90
2022-12-19T21:34:22.821Z,3.25
2022-12-19T21:36:50.743Z,4.55
2022-12-19T21:39:20.608Z,5.95
2022-12-19T21:41:48.303Z,4.20
2022-12-19T21:44:16.002Z,2.85
2022-12-19T21:46:45.223Z,4.82
2022-12-19T21:49:13.005Z,3.92
2022-12-19T21:51:40.728Z,3.67
2022-12-19T21:54:08.408Z,3.83
2022-12-19T21:56:36.717Z,4.30
2022-12-19T21:59:05.493Z,5.10
2022-12-19T22:01:33.983Z,11.13
2022-12-19T22:04:04.025Z,5.40
2022-12-19T22:06:32.904Z,3.33
2022-12-19T22:09:01.068Z,7.63
2022-12-19T22:11:29.604Z,2.83
2022-12-19T22:13:57.590Z,3.33
2022-12-19T22:16:25.515Z,3.78
2022-12-19T22:18:54.818Z,2.88
2022-12-19T22:21:24.246Z,3.25
2022-12-19T22:23:53.599Z,4.63
2022-12-19T22:26:22.473Z,3.47
2022-12-19T22:28:50.999Z,5.32
2022-12-19T22:31:20.298Z,3.83
2022-12-19T22:33:51.601Z,6.88
2022-12-19T22:36:25.815Z,2.45
2022-12-19T22:38:57.671Z,3.38
2022-12-19T22:41:25.769Z,3.35
2022-12-19T22:43:53.898Z,2.80
2022-12-19T22:46:22.341Z,2.72
2022-12-19T22:48:50.763Z,4.22
2022-12-19T22:51:19.087Z,10.07
2022-12-19T22:53:47.239Z,4.30
2022-12-19T22:56:20.822Z,3.13
2022-12-19T22:58:49.357Z,4.60
2022-12-19T23:01:18.428Z,4.97
2022-12-19T23:03:46.831Z,3.30
2022-12-19T23:06:14.790Z,2.83
2022-12-19T23:08:42.643Z,3.35
2022-12-19T23:11:13.732Z,3.50
2022-12-19T23:13:43.083Z,3.45
2022-12-19T23:16:12.704Z,3.47
2022-12-19T23:18:40.930Z,2.72
2022-12-19T23:21:10.347Z,5.10
2022-12-19T23:23:39.399Z,4.15
2022-12-19T23:26:11.319Z,4.70
2022-12-19T23:28:44.836Z,4.55
2022-12-19T23:31:14.052Z,4.22
2022-12-19T23:33:41.751Z,6.20
2022-12-19T23:36:10.280Z,5.22
2022-12-19T23:38:38.029Z,4.70
2022-12-19T23:41:07.119Z,4.85
2022-12-19T23:43:36.174Z,5.38
2022-12-19T23:46:08.184Z,4.82
2022-12-19T23:48:36.159Z,5.18
2022-12-19T23:51:05.060Z,3.25
2022-12-19T23:53:32.919Z,4.45
2022-12-19T23:56:00.851Z,4.35
2022-12-19T23:58:28.648Z,3.22
